< < Back
Terminal Aerodrome Forecast


Current Version              Previous Versions:   1  2  3  4  5  6  7  8  9  

Terminal Aerodrome Forecast

765
FTUS42 KCAE 240200 AAB
TAFCAE
TAF AMD
KCAE 240223Z 2402/2424 20010KT P6SM BKN050
     FM240600 21007KT P6SM OVC015
     FM241800 22014G25KT P6SM BKN025
     FM242100 23012G20KT P6SM SCT015 BKN035=

Latest METAR

302
SAUS80 KWBC 240500 RRA
MTRCAE
METAR KCAE 240456Z 22008KT 10SM FEW014 19/17 A2977 RMK AO2 SLP078
T01890167 402060089


USA.gov is the U.S. government's official web portal to all federal, state and local government web resources and services.